sensor_id;sensor_type;location;lat;lon;timestamp;temperature;humidity
27890;DHT22;15238;49.082;9.102;2024-01-15T00:00:44;-2.10;99.90
27890;DHT22;15238;49.082;9.102;2024-01-15T00:02:45;-2.10;99.90
27890;DHT22;15238;49.082;9.102;2024-01-15T00:04:46;-2.00;99.90
27890;DHT22;15238;49.082;9.102;2024-01-15T00:06:46;-2.00;99.90
27890;DHT22;15238;49.082;9.102;2024-01-15T00:08:47;-2.00;99.90
27890;DHT22;15238;49.082;9.102;2024-01-15T00:10:47;-2.00;99.90
27890;DHT22;15238;49.082;9.102;2024-01-15T00:12:48;-2.00;99.90
27890;DHT22;15238;49.082;9.102;2024-01-15T00:14:48;-2.00;99.90
27890;DHT22;15238;49.082;9.102;2024-01-15T00:16:49;-2.00;99.90
27890;DHT22;15238;49.082;9.102;2024-01-15T00:18:52;-2.00;99.90
27890;DHT22;15238;49.082;9.102;2024-01-15T00:20:53;-2.00;99.90
27890;DHT22;15238;49.082;9.102;2024-01-15T00:22:53;-1.90;99.90
27890;DHT22;15238;49.082;9.102;2024-01-15T00:24:54;-1.90;99.90
27890;DHT22;15238;49.082;9.102;2024-01-15T00:26:54;-1.90;99.90
27890;DHT22;15238;49.082;9.102;2024-01-15T00:28:55;-1.90;99.90
27890;DHT22;15238;49.082;9.102;2024-01-15T00:30:56;-1.90;99.90
27890;DHT22;15238;49.082;9.102;2024-01-15T00:32:56;-1.90;99.90
27890;DHT22;15238;49.082;9.102;2024-01-15T00:34:57;-1.80;99.90
27890;DHT22;15238;49.082;9.102;2024-01-15T00:36:57;-1.80;99.90
27890;DHT22;15238;49.082;9.102;2024-01-15T00:38:58;-1.80;99.90
27890;DHT22;15238;49.082;9.102;2024-01-15T00:40:58;-1.80;99.90
27890;DHT22;15238;49.082;9.102;2024-01-15T00:42:59;-1.80;99.90
27890;DHT22;15238;49.082;9.102;2024-01-15T00:44:59;-1.80;99.90
27890;DHT22;15238;49.082;9.102;2024-01-15T00:47:00;-1.80;99.90
27890;DHT22;15238;49.082;9.102;2024-01-15T00:49:02;-1.80;99.90
27890;DHT22;15238;49.082;9.102;2024-01-15T00:51:04;-1.80;99.90
27890;DHT22;15238;49.082;9.102;2024-01-15T00:53:05;-1.80;99.90
27890;DHT22;15238;49.082;9.102;2024-01-15T00:55:05;-1.70;99.90
27890;DHT22;15238;49.082;9.102;2024-01-15T00:57:06;-1.70;99.90
27890;DHT22;15238;49.082;9.102;2024-01-15T00:59:07;-1.70;99.90
27890;DHT22;15238;49.082;9.102;2024-01-15T01:01:08;-1.70;99.90
27890;DHT22;15238;49.082;9.102;2024-01-15T01:03:08;-1.60;99.90
27890;DHT22;15238;49.082;9.102;2024-01-15T01:05:09;-1.60;99.90
27890;DHT22;15238;49.082;9.102;2024-01-15T01:07:09;-1.70;99.90
27890;DHT22;15238;49.082;9.102;2024-01-15T01:09:10;-1.60;99.90
27890;DHT22;15238;49.082;9.102;2024-01-15T01:11:14;-1.60;99.90
27890;DHT22;15238;49.082;9.102;2024-01-15T01:13:15;-1.60;99.90
27890;DHT22;15238;49.082;9.102;2024-01-15T01:15:16;-1.60;99.90
27890;DHT22;15238;49.082;9.102;2024-01-15T01:17:17;-1.60;99.90
27890;DHT22;15238;49.082;9.102;2024-01-15T01:19:17;-1.60;99.90
27890;DHT22;15238;49.082;9.102;2024-01-15T01:21:18;-1.60;99.90
27890;DHT22;15238;49.082;9.102;2024-01-15T01:23:18;-1.60;99.90
27890;DHT22;15238;49.082;9.102;2024-01-15T01:25:19;-1.60;99.90
27890;DHT22;15238;49.082;9.102;2024-01-15T01:27:21;-1.50;99.90
27890;DHT22;15238;49.082;9.102;2024-01-15T01:29:22;-1.50;99.90
27890;DHT22;15238;49.082;9.102;2024-01-15T01:31:23;-1.50;99.90
27890;DHT22;15238;49.082;9.102;2024-01-15T01:33:24;-1.50;99.90
27890;DHT22;15238;49.082;9.102;2024-01-15T01:35:24;-1.50;99.90
27890;DHT22;15238;49.082;9.102;2024-01-15T01:37:25;-1.50;99.90
27890;DHT22;15238;49.082;9.102;2024-01-15T01:39:25;-1.50;99.90
27890;DHT22;15238;49.082;9.102;2024-01-15T01:41:26;-1.50;99.90
27890;DHT22;15238;49.082;9.102;2024-01-15T01:43:26;-1.50;99.90
27890;DHT22;15238;49.082;9.102;2024-01-15T01:45:27;-1.50;99.90
27890;DHT22;15238;49.082;9.102;2024-01-15T01:47:27;-1.50;99.90
27890;DHT22;15238;49.082;9.102;2024-01-15T01:49:28;-1.50;99.90
27890;DHT22;15238;49.082;9.102;2024-01-15T01:51:29;-1.50;99.90
27890;DHT22;15238;49.082;9.102;2024-01-15T01:53:29;-1.40;99.90
27890;DHT22;15238;49.082;9.102;2024-01-15T01:55:32;-1.50;99.90
27890;DHT22;15238;49.082;9.102;2024-01-15T01:57:34;-1.40;99.90
27890;DHT22;15238;49.082;9.102;2024-01-15T01:59:35;-1.40;99.90
27890;DHT22;15238;49.082;9.102;2024-01-15T02:01:36;-1.50;99.90
27890;DHT22;15238;49.082;9.102;2024-01-15T02:03:37;-1.50;99.90
27890;DHT22;15238;49.082;9.102;2024-01-15T02:05:39;-1.50;99.90
27890;DHT22;15238;49.082;9.102;2024-01-15T02:07:41;-1.40;99.90
27890;DHT22;15238;49.082;9.102;2024-01-15T02:09:41;-1.40;99.90
27890;DHT22;15238;49.082;9.102;2024-01-15T02:11:42;-1.40;99.90
27890;DHT22;15238;49.082;9.102;2024-01-15T02:13:43;-1.40;99.90
27890;DHT22;15238;49.082;9.102;2024-01-15T02:15:43;-1.40;99.90
27890;DHT22;15238;49.082;9.102;2024-01-15T02:17:58;-1.30;99.90
27890;DHT22;15238;49.082;9.102;2024-01-15T02:19:58;-1.30;99.90
27890;DHT22;15238;49.082;9.102;2024-01-15T02:21:59;-1.30;99.90
27890;DHT22;15238;49.082;9.102;2024-01-15T02:23:59;-1.30;99.90
27890;DHT22;15238;49.082;9.102;2024-01-15T02:26:00;-1.30;99.90
27890;DHT22;15238;49.082;9.102;2024-01-15T02:28:02;-1.30;99.90
27890;DHT22;15238;49.082;9.102;2024-01-15T02:30:02;-1.30;99.90
27890;DHT22;15238;49.082;9.102;2024-01-15T02:32:08;-1.30;99.90
27890;DHT22;15238;49.082;9.102;2024-01-15T02:34:08;-1.30;99.90
27890;DHT22;15238;49.082;9.102;2024-01-15T02:36:10;-1.20;99.90
27890;DHT22;15238;49.082;9.102;2024-01-15T02:38:10;-1.30;99.90
27890;DHT22;15238;49.082;9.102;2024-01-15T02:40:11;-1.30;99.90
27890;DHT22;15238;49.082;9.102;2024-01-15T02:42:11;-1.30;99.90
27890;DHT22;15238;49.082;9.102;2024-01-15T02:44:12;-1.20;99.90
27890;DHT22;15238;49.082;9.102;2024-01-15T02:46:12;-1.20;99.90
27890;DHT22;15238;49.082;9.102;2024-01-15T02:48:13;-1.20;99.90
27890;DHT22;15238;49.082;9.102;2024-01-15T02:50:14;-1.30;99.90
27890;DHT22;15238;49.082;9.102;2024-01-15T02:52:14;-1.30;99.90
27890;DHT22;15238;49.082;9.102;2024-01-15T02:54:15;-1.20;99.90
27890;DHT22;15238;49.082;9.102;2024-01-15T02:56:15;-1.20;99.90
27890;DHT22;15238;49.082;9.102;2024-01-15T02:58:16;-1.20;99.90
27890;DHT22;15238;49.082;9.102;2024-01-15T03:00:16;-1.10;99.90
27890;DHT22;15238;49.082;9.102;2024-01-15T03:02:17;-1.10;99.90
27890;DHT22;15238;49.082;9.102;2024-01-15T03:04:17;-1.10;99.90
27890;DHT22;15238;49.082;9.102;2024-01-15T03:06:18;-1.10;99.90
27890;DHT22;15238;49.082;9.102;2024-01-15T03:08:18;-1.10;99.90
27890;DHT22;15238;49.082;9.102;2024-01-15T03:10:19;-1.10;99.90
27890;DHT22;15238;49.082;9.102;2024-01-15T03:12:19;-1.10;99.90
27890;DHT22;15238;49.082;9.102;2024-01-15T03:14:20;-1.10;99.90
27890;DHT22;15238;49.082;9.102;2024-01-15T03:16:20;-1.10;99.90
27890;DHT22;15238;49.082;9.102;2024-01-15T03:18:21;-1.10;99.90
27890;DHT22;15238;49.082;9.102;2024-01-15T03:20:22;-1.00;99.90
27890;DHT22;15238;49.082;9.102;2024-01-15T03:22:22;-1.10;99.90
27890;DHT22;15238;49.082;9.102;2024-01-15T03:24:23;-1.10;99.90
27890;DHT22;15238;49.082;9.102;2024-01-15T03:26:23;-1.10;99.90
27890;DHT22;15238;49.082;9.102;2024-01-15T03:28:24;-1.00;99.90
27890;DHT22;15238;49.082;9.102;2024-01-15T03:30:24;-1.10;99.90
27890;DHT22;15238;49.082;9.102;2024-01-15T03:32:25;-1.10;99.90
27890;DHT22;15238;49.082;9.102;2024-01-15T03:34:25;-1.10;99.90
27890;DHT22;15238;49.082;9.102;2024-01-15T03:36:26;-1.00;99.90
27890;DHT22;15238;49.082;9.102;2024-01-15T03:38:28;-1.00;99.90
27890;DHT22;15238;49.082;9.102;2024-01-15T03:40:29;-1.00;99.90
27890;DHT22;15238;49.082;9.102;2024-01-15T03:42:29;-1.00;99.90
27890;DHT22;15238;49.082;9.102;2024-01-15T03:44:30;-0.90;99.90
27890;DHT22;15238;49.082;9.102;2024-01-15T03:46:30;-1.00;99.90
27890;DHT22;15238;49.082;9.102;2024-01-15T03:48:31;-1.00;99.90
27890;DHT22;15238;49.082;9.102;2024-01-15T03:50:31;-1.00;99.90
27890;DHT22;15238;49.082;9.102;2024-01-15T03:52:32;-0.90;99.90
27890;DHT22;15238;49.082;9.102;2024-01-15T03:54:32;-0.90;99.90
27890;DHT22;15238;49.082;9.102;2024-01-15T03:56:33;-0.90;99.90
27890;DHT22;15238;49.082;9.102;2024-01-15T03:58:34;-1.00;99.90
27890;DHT22;15238;49.082;9.102;2024-01-15T04:00:34;-0.90;99.90
27890;DHT22;15238;49.082;9.102;2024-01-15T04:02:34;-0.90;99.90
27890;DHT22;15238;49.082;9.102;2024-01-15T04:04:35;-1.00;99.90
27890;DHT22;15238;49.082;9.102;2024-01-15T04:06:36;-0.90;99.90
27890;DHT22;15238;49.082;9.102;2024-01-15T04:08:36;-0.90;99.90
27890;DHT22;15238;49.082;9.102;2024-01-15T04:10:36;-0.90;99.90
27890;DHT22;15238;49.082;9.102;2024-01-15T04:12:37;-0.90;99.90
27890;DHT22;15238;49.082;9.102;2024-01-15T04:14:38;-0.90;99.90
27890;DHT22;15238;49.082;9.102;2024-01-15T04:16:38;-0.90;99.90
27890;DHT22;15238;49.082;9.102;2024-01-15T04:18:39;-0.90;99.90
27890;DHT22;15238;49.082;9.102;2024-01-15T04:20:39;-0.90;99.90
27890;DHT22;15238;49.082;9.102;2024-01-15T04:22:40;-1.00;99.90
27890;DHT22;15238;49.082;9.102;2024-01-15T04:24:40;-0.90;99.90
27890;DHT22;15238;49.082;9.102;2024-01-15T04:26:41;-0.90;99.90
27890;DHT22;15238;49.082;9.102;2024-01-15T04:28:41;-0.90;99.90
27890;DHT22;15238;49.082;9.102;2024-01-15T04:30:42;-0.90;99.90
27890;DHT22;15238;49.082;9.102;2024-01-15T04:32:42;-0.90;99.90
27890;DHT22;15238;49.082;9.102;2024-01-15T04:34:43;-0.90;99.90
27890;DHT22;15238;49.082;9.102;2024-01-15T04:36:43;-0.90;99.90
27890;DHT22;15238;49.082;9.102;2024-01-15T04:38:44;-0.90;99.90
27890;DHT22;15238;49.082;9.102;2024-01-15T04:40:44;-0.80;99.90
27890;DHT22;15238;49.082;9.102;2024-01-15T04:42:45;-0.80;99.90
27890;DHT22;15238;49.082;9.102;2024-01-15T04:44:48;-0.80;99.90
27890;DHT22;15238;49.082;9.102;2024-01-15T04:46:49;-0.80;99.90
27890;DHT22;15238;49.082;9.102;2024-01-15T04:48:50;-0.80;99.90
27890;DHT22;15238;49.082;9.102;2024-01-15T04:50:50;-0.80;99.90
27890;DHT22;15238;49.082;9.102;2024-01-15T04:52:51;-0.80;99.90
27890;DHT22;15238;49.082;9.102;2024-01-15T04:54:51;-0.80;99.90
27890;DHT22;15238;49.082;9.102;2024-01-15T04:56:52;-0.80;99.90
27890;DHT22;15238;49.082;9.102;2024-01-15T04:58:52;-0.80;99.90
27890;DHT22;15238;49.082;9.102;2024-01-15T05:00:53;-0.80;99.90
27890;DHT22;15238;49.082;9.102;2024-01-15T05:02:54;-0.80;99.90
27890;DHT22;15238;49.082;9.102;2024-01-15T05:04:56;-0.70;99.90
27890;DHT22;15238;49.082;9.102;2024-01-15T05:06:56;-0.80;99.90
27890;DHT22;15238;49.082;9.102;2024-01-15T05:08:57;-0.80;99.90
27890;DHT22;15238;49.082;9.102;2024-01-15T05:10:57;-0.80;99.90
27890;DHT22;15238;49.082;9.102;2024-01-15T05:12:58;-0.80;99.90
27890;DHT22;15238;49.082;9.102;2024-01-15T05:14:58;-0.80;99.90
27890;DHT22;15238;49.082;9.102;2024-01-15T05:16:59;-0.70;99.90
27890;DHT22;15238;49.082;9.102;2024-01-15T05:18:59;-0.70;99.90
27890;DHT22;15238;49.082;9.102;2024-01-15T05:21:00;-0.70;99.90
27890;DHT22;15238;49.082;9.102;2024-01-15T05:23:00;-0.70;99.90
27890;DHT22;15238;49.082;9.102;2024-01-15T05:25:01;-0.70;99.90
27890;DHT22;15238;49.082;9.102;2024-01-15T05:27:01;-0.70;99.90
27890;DHT22;15238;49.082;9.102;2024-01-15T05:29:02;-0.70;99.90
27890;DHT22;15238;49.082;9.102;2024-01-15T05:31:04;-0.70;99.90
27890;DHT22;15238;49.082;9.102;2024-01-15T05:33:04;-0.70;99.90
27890;DHT22;15238;49.082;9.102;2024-01-15T05:35:05;-0.70;99.90
27890;DHT22;15238;49.082;9.102;2024-01-15T05:37:06;-0.70;99.90
27890;DHT22;15238;49.082;9.102;2024-01-15T05:39:06;-0.70;99.90
27890;DHT22;15238;49.082;9.102;2024-01-15T05:41:07;-0.80;99.90
27890;DHT22;15238;49.082;9.102;2024-01-15T05:43:08;-0.70;99.90
27890;DHT22;15238;49.082;9.102;2024-01-15T05:45:08;-0.70;99.90
27890;DHT22;15238;49.082;9.102;2024-01-15T05:47:09;-0.70;99.90
27890;DHT22;15238;49.082;9.102;2024-01-15T05:49:09;-0.70;99.90
27890;DHT22;15238;49.082;9.102;2024-01-15T05:51:10;-0.70;99.90
27890;DHT22;15238;49.082;9.102;2024-01-15T05:53:10;-0.70;99.90
27890;DHT22;15238;49.082;9.102;2024-01-15T05:55:11;-0.70;99.90
27890;DHT22;15238;49.082;9.102;2024-01-15T05:57:11;-0.70;99.90
27890;DHT22;15238;49.082;9.102;2024-01-15T05:59:12;-0.60;99.90
27890;DHT22;15238;49.082;9.102;2024-01-15T06:01:12;-0.60;99.90
27890;DHT22;15238;49.082;9.102;2024-01-15T06:03:13;-0.60;99.90
27890;DHT22;15238;49.082;9.102;2024-01-15T06:05:13;-0.60;99.90
27890;DHT22;15238;49.082;9.102;2024-01-15T06:07:14;-0.60;99.90
27890;DHT22;15238;49.082;9.102;2024-01-15T06:09:15;-0.60;99.90
27890;DHT22;15238;49.082;9.102;2024-01-15T06:11:15;-0.60;99.90
27890;DHT22;15238;49.082;9.102;2024-01-15T06:13:16;-0.50;99.90
27890;DHT22;15238;49.082;9.102;2024-01-15T06:15:16;-0.50;99.90
27890;DHT22;15238;49.082;9.102;2024-01-15T06:17:17;-0.50;99.90
27890;DHT22;15238;49.082;9.102;2024-01-15T06:19:17;-0.50;99.90
27890;DHT22;15238;49.082;9.102;2024-01-15T06:21:18;-0.50;99.90
27890;DHT22;15238;49.082;9.102;2024-01-15T06:23:18;-0.50;99.90
27890;DHT22;15238;49.082;9.102;2024-01-15T06:25:19;-0.50;99.90
27890;DHT22;15238;49.082;9.102;2024-01-15T06:27:19;-0.50;99.90
27890;DHT22;15238;49.082;9.102;2024-01-15T06:29:20;-0.50;99.90
27890;DHT22;15238;49.082;9.102;2024-01-15T06:31:20;-0.50;99.90
27890;DHT22;15238;49.082;9.102;2024-01-15T06:33:21;-0.50;99.90
27890;DHT22;15238;49.082;9.102;2024-01-15T06:35:21;-0.50;99.90
27890;DHT22;15238;49.082;9.102;2024-01-15T06:37:22;-0.50;99.90
27890;DHT22;15238;49.082;9.102;2024-01-15T06:39:22;-0.50;99.90
27890;DHT22;15238;49.082;9.102;2024-01-15T06:41:23;-0.50;99.90
27890;DHT22;15238;49.082;9.102;2024-01-15T06:43:25;-0.50;99.90
27890;DHT22;15238;49.082;9.102;2024-01-15T06:45:25;-0.50;99.90
27890;DHT22;15238;49.082;9.102;2024-01-15T06:47:26;-0.50;99.90
27890;DHT22;15238;49.082;9.102;2024-01-15T06:49:26;-0.50;99.90
27890;DHT22;15238;49.082;9.102;2024-01-15T06:51:27;-0.50;99.90
27890;DHT22;15238;49.082;9.102;2024-01-15T06:53:28;-0.50;99.90
27890;DHT22;15238;49.082;9.102;2024-01-15T06:55:28;-0.50;99.90
27890;DHT22;15238;49.082;9.102;2024-01-15T06:57:29;-0.50;99.90
27890;DHT22;15238;49.082;9.102;2024-01-15T06:59:30;-0.60;99.90
27890;DHT22;15238;49.082;9.102;2024-01-15T07:01:30;-0.60;99.90
27890;DHT22;15238;49.082;9.102;2024-01-15T07:03:30;-0.60;99.90
27890;DHT22;15238;49.082;9.102;2024-01-15T07:05:31;-0.70;99.90
27890;DHT22;15238;49.082;9.102;2024-01-15T07:07:32;-0.70;99.90
27890;DHT22;15238;49.082;9.102;2024-01-15T07:09:33;-0.70;99.90
27890;DHT22;15238;49.082;9.102;2024-01-15T07:11:33;-0.60;99.90
27890;DHT22;15238;49.082;9.102;2024-01-15T07:13:34;-0.60;99.90
27890;DHT22;15238;49.082;9.102;2024-01-15T07:15:36;-0.60;99.90
27890;DHT22;15238;49.082;9.102;2024-01-15T07:17:36;-0.60;99.90
27890;DHT22;15238;49.082;9.102;2024-01-15T07:19:39;-0.60;99.90
27890;DHT22;15238;49.082;9.102;2024-01-15T07:21:40;-0.60;99.90
27890;DHT22;15238;49.082;9.102;2024-01-15T07:23:40;-0.60;99.90
27890;DHT22;15238;49.082;9.102;2024-01-15T07:25:43;-0.60;99.90
27890;DHT22;15238;49.082;9.102;2024-01-15T07:27:43;-0.70;99.90
27890;DHT22;15238;49.082;9.102;2024-01-15T07:29:45;-0.60;99.90
27890;DHT22;15238;49.082;9.102;2024-01-15T07:31:50;-0.60;99.90
27890;DHT22;15238;49.082;9.102;2024-01-15T07:33:50;-0.60;99.90
27890;DHT22;15238;49.082;9.102;2024-01-15T07:35:51;-0.60;99.90
27890;DHT22;15238;49.082;9.102;2024-01-15T07:37:51;-0.60;99.90
27890;DHT22;15238;49.082;9.102;2024-01-15T07:39:52;-0.60;99.90
27890;DHT22;15238;49.082;9.102;2024-01-15T07:41:52;-0.60;99.90
27890;DHT22;15238;49.082;9.102;2024-01-15T07:43:53;-0.60;99.90
27890;DHT22;15238;49.082;9.102;2024-01-15T07:45:53;-0.60;99.90
27890;DHT22;15238;49.082;9.102;2024-01-15T07:47:54;-0.50;99.90
27890;DHT22;15238;49.082;9.102;2024-01-15T07:49:54;-0.50;99.90
27890;DHT22;15238;49.082;9.102;2024-01-15T07:51:55;-0.50;99.90
27890;DHT22;15238;49.082;9.102;2024-01-15T07:53:56;-0.40;99.90
27890;DHT22;15238;49.082;9.102;2024-01-15T07:55:57;-0.40;99.90
27890;DHT22;15238;49.082;9.102;2024-01-15T07:57:57;-0.40;99.90
27890;DHT22;15238;49.082;9.102;2024-01-15T07:59:59;-0.30;99.90
27890;DHT22;15238;49.082;9.102;2024-01-15T08:01:59;-0.30;99.90
27890;DHT22;15238;49.082;9.102;2024-01-15T08:04:00;-0.30;99.90
27890;DHT22;15238;49.082;9.102;2024-01-15T08:06:00;-0.30;99.90
27890;DHT22;15238;49.082;9.102;2024-01-15T08:08:01;-0.30;99.90
27890;DHT22;15238;49.082;9.102;2024-01-15T08:10:01;-0.30;99.90
27890;DHT22;15238;49.082;9.102;2024-01-15T08:12:02;-0.30;99.90
27890;DHT22;15238;49.082;9.102;2024-01-15T08:14:03;-0.30;99.90
27890;DHT22;15238;49.082;9.102;2024-01-15T08:16:04;-0.30;99.90
27890;DHT22;15238;49.082;9.102;2024-01-15T08:18:05;-0.30;99.90
27890;DHT22;15238;49.082;9.102;2024-01-15T08:20:05;-0.20;99.90
27890;DHT22;15238;49.082;9.102;2024-01-15T08:22:06;-0.20;99.90
27890;DHT22;15238;49.082;9.102;2024-01-15T08:24:08;-0.20;99.90
27890;DHT22;15238;49.082;9.102;2024-01-15T08:26:08;-0.20;99.90
27890;DHT22;15238;49.082;9.102;2024-01-15T08:28:09;-0.20;99.90
27890;DHT22;15238;49.082;9.102;2024-01-15T08:30:10;-0.30;99.90
27890;DHT22;15238;49.082;9.102;2024-01-15T08:32:11;-0.20;99.90
27890;DHT22;15238;49.082;9.102;2024-01-15T08:34:14;-0.20;99.90
27890;DHT22;15238;49.082;9.102;2024-01-15T08:36:14;-0.20;99.90
27890;DHT22;15238;49.082;9.102;2024-01-15T08:38:15;-0.20;99.90
27890;DHT22;15238;49.082;9.102;2024-01-15T08:40:16;-0.20;99.90
27890;DHT22;15238;49.082;9.102;2024-01-15T08:42:17;-0.20;99.90
27890;DHT22;15238;49.082;9.102;2024-01-15T08:44:17;-0.20;99.90
27890;DHT22;15238;49.082;9.102;2024-01-15T08:46:18;-0.10;99.90
27890;DHT22;15238;49.082;9.102;2024-01-15T08:48:19;-0.20;99.90
27890;DHT22;15238;49.082;9.102;2024-01-15T08:50:20;-0.10;99.90
27890;DHT22;15238;49.082;9.102;2024-01-15T08:52:20;-0.10;99.90
27890;DHT22;15238;49.082;9.102;2024-01-15T08:54:21;0.00;99.90
27890;DHT22;15238;49.082;9.102;2024-01-15T08:56:21;0.00;99.90
27890;DHT22;15238;49.082;9.102;2024-01-15T08:58:23;0.00;99.90
27890;DHT22;15238;49.082;9.102;2024-01-15T09:00:24;0.10;99.90
27890;DHT22;15238;49.082;9.102;2024-01-15T09:02:24;0.10;99.90
27890;DHT22;15238;49.082;9.102;2024-01-15T09:04:25;0.20;99.90
27890;DHT22;15238;49.082;9.102;2024-01-15T09:06:25;0.20;99.90
27890;DHT22;15238;49.082;9.102;2024-01-15T09:08:26;0.20;99.90
27890;DHT22;15238;49.082;9.102;2024-01-15T09:10:27;0.20;99.90
27890;DHT22;15238;49.082;9.102;2024-01-15T09:12:29;0.30;99.90
27890;DHT22;15238;49.082;9.102;2024-01-15T09:14:29;0.30;99.90
27890;DHT22;15238;49.082;9.102;2024-01-15T09:16:30;0.30;99.90
27890;DHT22;15238;49.082;9.102;2024-01-15T09:18:31;0.40;99.90
27890;DHT22;15238;49.082;9.102;2024-01-15T09:20:32;0.50;99.90
27890;DHT22;15238;49.082;9.102;2024-01-15T09:22:32;0.50;99.90
27890;DHT22;15238;49.082;9.102;2024-01-15T09:24:33;0.50;99.90
27890;DHT22;15238;49.082;9.102;2024-01-15T09:26:33;0.50;99.90
27890;DHT22;15238;49.082;9.102;2024-01-15T09:28:34;0.50;99.90
27890;DHT22;15238;49.082;9.102;2024-01-15T09:30:35;0.60;99.90
27890;DHT22;15238;49.082;9.102;2024-01-15T09:32:36;0.60;99.90
27890;DHT22;15238;49.082;9.102;2024-01-15T09:34:37;0.60;99.90
27890;DHT22;15238;49.082;9.102;2024-01-15T09:36:41;0.60;99.90
27890;DHT22;15238;49.082;9.102;2024-01-15T09:38:42;0.60;99.90
27890;DHT22;15238;49.082;9.102;2024-01-15T09:40:43;0.70;99.90
27890;DHT22;15238;49.082;9.102;2024-01-15T09:42:46;0.60;99.90
27890;DHT22;15238;49.082;9.102;2024-01-15T09:44:48;0.70;99.90
27890;DHT22;15238;49.082;9.102;2024-01-15T09:46:48;0.70;99.90
27890;DHT22;15238;49.082;9.102;2024-01-15T09:48:50;0.70;99.90
27890;DHT22;15238;49.082;9.102;2024-01-15T09:50:52;0.70;99.90
27890;DHT22;15238;49.082;9.102;2024-01-15T09:52:54;0.70;99.90
27890;DHT22;15238;49.082;9.102;2024-01-15T09:54:54;0.70;99.90
27890;DHT22;15238;49.082;9.102;2024-01-15T09:56:55;0.70;99.90
27890;DHT22;15238;49.082;9.102;2024-01-15T09:58:57;0.70;99.90
27890;DHT22;15238;49.082;9.102;2024-01-15T10:00:58;0.80;99.90
27890;DHT22;15238;49.082;9.102;2024-01-15T10:02:59;0.80;99.90
27890;DHT22;15238;49.082;9.102;2024-01-15T10:05:00;0.80;99.90
27890;DHT22;15238;49.082;9.102;2024-01-15T10:07:01;0.80;99.90
27890;DHT22;15238;49.082;9.102;2024-01-15T10:09:03;0.70;99.90
27890;DHT22;15238;49.082;9.102;2024-01-15T10:11:04;0.70;99.90
27890;DHT22;15238;49.082;9.102;2024-01-15T10:13:05;0.70;99.90
27890;DHT22;15238;49.082;9.102;2024-01-15T10:15:10;0.60;99.90
27890;DHT22;15238;49.082;9.102;2024-01-15T10:17:15;0.60;99.90
27890;DHT22;15238;49.082;9.102;2024-01-15T10:19:16;0.60;99.90
27890;DHT22;15238;49.082;9.102;2024-01-15T10:21:16;0.50;99.90
27890;DHT22;15238;49.082;9.102;2024-01-15T10:23:17;0.50;99.90
27890;DHT22;15238;49.082;9.102;2024-01-15T10:25:17;0.50;99.90
27890;DHT22;15238;49.082;9.102;2024-01-15T10:27:23;0.60;99.90
27890;DHT22;15238;49.082;9.102;2024-01-15T10:29:24;0.60;99.90
27890;DHT22;15238;49.082;9.102;2024-01-15T10:31:26;0.60;99.90
27890;DHT22;15238;49.082;9.102;2024-01-15T10:33:27;0.70;99.90
27890;DHT22;15238;49.082;9.102;2024-01-15T10:35:32;0.70;99.90
27890;DHT22;15238;49.082;9.102;2024-01-15T10:37:33;0.80;99.90
27890;DHT22;15238;49.082;9.102;2024-01-15T10:39:35;0.80;99.90
27890;DHT22;15238;49.082;9.102;2024-01-15T10:41:35;0.70;99.90
27890;DHT22;15238;49.082;9.102;2024-01-15T10:43:36;0.80;99.90
27890;DHT22;15238;49.082;9.102;2024-01-15T10:45:37;0.80;99.90
27890;DHT22;15238;49.082;9.102;2024-01-15T10:47:37;0.90;99.90
27890;DHT22;15238;49.082;9.102;2024-01-15T10:49:38;0.90;99.90
27890;DHT22;15238;49.082;9.102;2024-01-15T10:51:41;0.90;99.90
27890;DHT22;15238;49.082;9.102;2024-01-15T10:53:42;0.80;99.90
27890;DHT22;15238;49.082;9.102;2024-01-15T10:55:45;0.80;99.90
27890;DHT22;15238;49.082;9.102;2024-01-15T10:57:48;0.80;99.90
27890;DHT22;15238;49.082;9.102;2024-01-15T10:59:49;0.70;99.90
27890;DHT22;15238;49.082;9.102;2024-01-15T11:01:51;0.60;99.90
27890;DHT22;15238;49.082;9.102;2024-01-15T11:03:55;0.60;99.90
27890;DHT22;15238;49.082;9.102;2024-01-15T11:05:57;0.50;99.90
27890;DHT22;15238;49.082;9.102;2024-01-15T11:07:58;0.50;99.90
27890;DHT22;15238;49.082;9.102;2024-01-15T11:10:03;0.40;99.90
27890;DHT22;15238;49.082;9.102;2024-01-15T11:12:11;0.40;99.90
27890;DHT22;15238;49.082;9.102;2024-01-15T11:14:33;0.40;99.90
27890;DHT22;15238;49.082;9.102;2024-01-15T11:16:53;0.40;99.90
27890;DHT22;15238;49.082;9.102;2024-01-15T11:25:44;0.30;99.90
27890;DHT22;15238;49.082;9.102;2024-01-15T11:27:50;0.30;99.90
27890;DHT22;15238;49.082;9.102;2024-01-15T11:30:04;0.30;99.90
27890;DHT22;15238;49.082;9.102;2024-01-15T11:32:08;0.40;99.90
27890;DHT22;15238;49.082;9.102;2024-01-15T11:34:10;0.40;99.90
27890;DHT22;15238;49.082;9.102;2024-01-15T11:36:11;0.40;99.90
27890;DHT22;15238;49.082;9.102;2024-01-15T11:38:11;0.40;99.90
27890;DHT22;15238;49.082;9.102;2024-01-15T11:40:12;0.40;99.90
27890;DHT22;15238;49.082;9.102;2024-01-15T11:42:13;0.50;99.90
27890;DHT22;15238;49.082;9.102;2024-01-15T11:44:14;0.50;99.90
27890;DHT22;15238;49.082;9.102;2024-01-15T11:46:17;0.50;99.90
27890;DHT22;15238;49.082;9.102;2024-01-15T11:48:18;0.60;99.90
27890;DHT22;15238;49.082;9.102;2024-01-15T11:50:21;0.60;99.90
27890;DHT22;15238;49.082;9.102;2024-01-15T11:52:22;0.50;99.90
27890;DHT22;15238;49.082;9.102;2024-01-15T11:54:24;0.60;99.90
27890;DHT22;15238;49.082;9.102;2024-01-15T11:56:25;0.60;99.90
27890;DHT22;15238;49.082;9.102;2024-01-15T11:58:26;0.70;99.90
27890;DHT22;15238;49.082;9.102;2024-01-15T12:00:26;0.60;99.90
27890;DHT22;15238;49.082;9.102;2024-01-15T12:02:27;0.60;99.90
27890;DHT22;15238;49.082;9.102;2024-01-15T12:04:27;0.70;99.90
27890;DHT22;15238;49.082;9.102;2024-01-15T12:06:28;0.70;99.90
27890;DHT22;15238;49.082;9.102;2024-01-15T12:08:29;0.70;99.90
27890;DHT22;15238;49.082;9.102;2024-01-15T12:10:30;0.70;99.90
27890;DHT22;15238;49.082;9.102;2024-01-15T12:12:42;0.70;99.90
27890;DHT22;15238;49.082;9.102;2024-01-15T12:14:45;0.70;99.90
27890;DHT22;15238;49.082;9.102;2024-01-15T12:16:46;0.60;99.90
27890;DHT22;15238;49.082;9.102;2024-01-15T12:18:46;0.60;99.90
27890;DHT22;15238;49.082;9.102;2024-01-15T12:20:47;0.50;99.90
27890;DHT22;15238;49.082;9.102;2024-01-15T12:22:48;0.60;99.90
27890;DHT22;15238;49.082;9.102;2024-01-15T12:24:48;0.70;99.90
27890;DHT22;15238;49.082;9.102;2024-01-15T12:26:49;0.70;99.90
27890;DHT22;15238;49.082;9.102;2024-01-15T12:28:50;0.60;99.90
27890;DHT22;15238;49.082;9.102;2024-01-15T12:30:51;0.60;99.90
27890;DHT22;15238;49.082;9.102;2024-01-15T12:32:52;0.60;99.90
27890;DHT22;15238;49.082;9.102;2024-01-15T12:34:52;0.70;99.90
27890;DHT22;15238;49.082;9.102;2024-01-15T12:36:53;0.60;99.90
27890;DHT22;15238;49.082;9.102;2024-01-15T12:38:53;0.60;99.90
27890;DHT22;15238;49.082;9.102;2024-01-15T12:40:54;0.60;99.90
27890;DHT22;15238;49.082;9.102;2024-01-15T12:42:55;0.60;99.90
27890;DHT22;15238;49.082;9.102;2024-01-15T12:45:00;0.60;99.90
27890;DHT22;15238;49.082;9.102;2024-01-15T12:47:00;0.60;99.90
27890;DHT22;15238;49.082;9.102;2024-01-15T12:49:04;0.60;99.90
27890;DHT22;15238;49.082;9.102;2024-01-15T12:51:06;0.60;99.90
27890;DHT22;15238;49.082;9.102;2024-01-15T12:53:06;0.70;99.90
27890;DHT22;15238;49.082;9.102;2024-01-15T12:55:09;0.70;99.90